Time,TemperatureF,DewpointF,PressureIn,WindDirection,WindDirectionDegrees,WindSpeedMPH,WindSpeedGustMPH,Humidity,HourlyPrecipIn,Conditions,Clouds,dailyrainin,SoftwareType,DateUTC
2013-02-13 00:00:00,38.8,19.3,30.31,SSE,160,0.0,0.0,45,0.00,,---,0.00,VWS V14.01,2013-02-13 08:00:00,
2013-02-13 00:05:00,38.5,19.0,30.31,SSE,160,0.0,0.0,45,0.00,,---,0.00,VWS V14.01,2013-02-13 08:05:00,
2013-02-13 00:10:00,37.7,18.8,30.31,SSE,160,0.0,0.0,46,0.00,,---,0.00,VWS V14.01,2013-02-13 08:10:00,
2013-02-13 00:15:00,37.2,18.3,30.31,SSE,159,0.0,0.0,46,0.00,,---,0.00,VWS V14.01,2013-02-13 08:15:00,
2013-02-13 00:20:00,37.1,17.7,30.31,East,98,0.0,0.0,45,0.00,,---,0.00,VWS V14.01,2013-02-13 08:20:00,
2013-02-13 00:25:00,36.9,17.6,30.31,East,91,2.0,3.0,45,0.00,,---,0.00,VWS V14.01,2013-02-13 08:25:00,
2013-02-13 00:30:00,36.5,17.7,30.31,East,97,1.0,3.0,46,0.00,,---,0.00,VWS V14.01,2013-02-13 08:30:00,
2013-02-13 00:35:00,36.4,17.6,30.31,East,98,1.0,3.0,46,0.00,,---,0.00,VWS V14.01,2013-02-13 08:35:00,
2013-02-13 00:40:00,36.3,17.5,30.31,ESE,122,1.0,3.0,46,0.00,,---,0.00,VWS V14.01,2013-02-13 08:40:00,
2013-02-13 00:45:00,36.4,17.6,30.30,SE,130,1.0,3.0,46,0.00,,---,0.00,VWS V14.01,2013-02-13 08:45:00,
2013-02-13 00:50:00,36.4,17.6,30.30,SE,125,1.0,3.0,46,0.00,,---,0.00,VWS V14.01,2013-02-13 08:50:00,
2013-02-13 00:55:00,36.5,18.2,30.30,SE,134,0.0,3.0,47,0.00,,---,0.00,VWS V14.01,2013-02-13 08:55:00,
2013-02-13 01:00:00,36.2,18.4,30.30,SE,134,0.0,0.0,48,0.00,,---,0.00,VWS V14.01,2013-02-13 09:00:00,
2013-02-13 01:05:00,36.1,18.8,30.30,SE,133,1.0,1.0,49,0.00,,---,0.00,VWS V14.01,2013-02-13 09:05:00,
2013-02-13 01:10:00,36.1,18.8,30.30,SE,129,0.0,1.0,49,0.00,,---,0.00,VWS V14.01,2013-02-13 09:10:00,
2013-02-13 01:15:00,36.3,19.0,30.30,SE,134,1.0,1.0,49,0.00,,---,0.00,VWS V14.01,2013-02-13 09:15:00,
2013-02-13 01:20:00,36.3,19.0,30.30,SE,135,0.0,1.0,49,0.00,,---,0.00,VWS V14.01,2013-02-13 09:20:00,
2013-02-13 01:25:00,36.2,19.4,30.30,SSE,149,0.0,1.0,50,0.00,,---,0.00,VWS V14.01,2013-02-13 09:25:00,
2013-02-13 01:30:00,36.3,19.0,30.30,SSE,158,1.0,1.0,49,0.00,,---,0.00,VWS V14.01,2013-02-13 09:30:00,
2013-02-13 01:35:00,36.4,19.5,30.30,SSE,153,0.0,1.0,50,0.00,,---,0.00,VWS V14.01,2013-02-13 09:35:00,
2013-02-13 01:40:00,36.8,19.5,30.29,SSE,153,0.0,1.0,49,0.00,,---,0.00,VWS V14.01,2013-02-13 09:40:00,
2013-02-13 01:45:00,36.9,19.5,30.30,SSE,149,0.0,1.0,49,0.00,,---,0.00,VWS V14.01,2013-02-13 09:45:00,
2013-02-13 01:50:00,36.6,19.3,30.30,SSW,212,0.0,1.0,49,0.00,,---,0.00,VWS V14.01,2013-02-13 09:50:00,
2013-02-13 01:55:00,36.6,19.7,30.30,SW,215,1.0,1.0,50,0.00,,---,0.00,VWS V14.01,2013-02-13 09:55:00,
2013-02-13 02:00:00,35.7,19.4,30.30,WNW,285,1.0,2.0,51,0.00,,---,0.00,VWS V14.01,2013-02-13 10:00:00,
2013-02-13 02:05:00,35.3,20.3,30.30,West,281,0.0,2.0,54,0.00,,---,0.00,VWS V14.01,2013-02-13 10:05:00,
2013-02-13 02:10:00,35.2,20.2,30.30,West,264,0.0,2.0,54,0.00,,---,0.00,VWS V14.01,2013-02-13 10:10:00,
2013-02-13 02:15:00,35.0,20.5,30.30,SW,228,0.0,2.0,55,0.00,,---,0.00,VWS V14.01,2013-02-13 10:15:00,
2013-02-13 02:20:00,34.6,20.5,30.30,SSW,205,0.0,2.0,56,0.00,,---,0.00,VWS V14.01,2013-02-13 10:20:00,
2013-02-13 02:26:00,34.1,20.5,30.30,SSW,205,0.0,2.0,57,0.00,,---,0.00,VWS V14.01,2013-02-13 10:26:00,
2013-02-13 02:31:00,33.8,20.6,30.30,SSW,207,0.0,2.0,58,0.00,,---,0.00,VWS V14.01,2013-02-13 10:31:00,
2013-02-13 02:36:00,33.9,21.1,30.30,SSE,160,1.0,2.0,59,0.00,,---,0.00,VWS V14.01,2013-02-13 10:36:00,
2013-02-13 02:41:00,33.9,21.1,30.30,South,179,1.0,2.0,59,0.00,,---,0.00,VWS V14.01,2013-02-13 10:41:00,
2013-02-13 02:46:00,34.2,21.4,30.29,South,181,1.0,2.0,59,0.00,,---,0.00,VWS V14.01,2013-02-13 10:46:00,
2013-02-13 02:51:00,34.5,21.7,30.29,South,179,2.0,2.0,59,0.00,,---,0.00,VWS V14.01,2013-02-13 10:51:00,
2013-02-13 02:56:00,35.1,22.2,30.29,South,188,2.0,2.0,59,0.00,,---,0.00,VWS V14.01,2013-02-13 10:56:00,
2013-02-13 03:01:00,35.6,22.3,30.29,South,188,0.0,1.0,58,0.00,,---,0.00,VWS V14.01,2013-02-13 11:01:00,
2013-02-13 03:06:00,35.5,21.8,30.29,South,188,0.0,1.0,57,0.00,,---,0.00,VWS V14.01,2013-02-13 11:06:00,
2013-02-13 03:11:00,35.8,22.1,30.29,South,188,0.0,1.0,57,0.00,,---,0.00,VWS V14.01,2013-02-13 11:11:00,
2013-02-13 03:16:00,35.9,21.8,30.29,SSE,152,0.0,1.0,56,0.00,,---,0.00,VWS V14.01,2013-02-13 11:16:00,
2013-02-13 03:21:00,36.0,21.8,30.29,SE,141,0.0,1.0,56,0.00,,---,0.00,VWS V14.01,2013-02-13 11:21:00,
2013-02-13 03:26:00,36.1,21.9,30.29,SE,141,0.0,1.0,56,0.00,,---,0.00,VWS V14.01,2013-02-13 11:26:00,
2013-02-13 03:31:00,35.8,21.2,30.29,SSE,167,0.0,1.0,55,0.00,,---,0.00,VWS V14.01,2013-02-13 11:31:00,
2013-02-13 03:36:00,34.9,21.2,30.29,SSE,167,0.0,1.0,57,0.00,,---,0.00,VWS V14.01,2013-02-13 11:36:00,
2013-02-13 03:41:00,34.6,21.4,30.29,SE,142,0.0,1.0,58,0.00,,---,0.00,VWS V14.01,2013-02-13 11:41:00,
2013-02-13 03:46:00,35.1,21.8,30.29,SSE,155,0.0,1.0,58,0.00,,---,0.00,VWS V14.01,2013-02-13 11:46:00,
2013-02-13 03:51:00,35.4,21.7,30.29,SSE,155,0.0,1.0,57,0.00,,---,0.00,VWS V14.01,2013-02-13 11:51:00,
2013-02-13 03:56:00,34.9,21.6,30.28,SSE,155,0.0,1.0,58,0.00,,---,0.00,VWS V14.01,2013-02-13 11:56:00,
2013-02-13 04:01:00,33.8,21.0,30.28,SSE,155,0.0,0.0,59,0.00,,---,0.00,VWS V14.01,2013-02-13 12:01:00,
2013-02-13 04:06:00,33.1,21.1,30.28,SSE,155,0.0,0.0,61,0.00,,---,0.00,VWS V14.01,2013-02-13 12:06:00,
2013-02-13 04:11:00,32.6,21.4,30.28,SSE,155,0.0,0.0,63,0.00,,---,0.00,VWS V14.01,2013-02-13 12:11:00,
2013-02-13 04:16:00,32.3,21.5,30.28,SSE,155,0.0,0.0,64,0.00,,---,0.00,VWS V14.01,2013-02-13 12:16:00,
2013-02-13 04:21:00,32.1,21.3,30.28,SSE,155,0.0,0.0,64,0.00,,---,0.00,VWS V14.01,2013-02-13 12:21:00,
2013-02-13 04:26:00,32.1,21.3,30.28,SSE,155,0.0,0.0,64,0.00,,---,0.00,VWS V14.01,2013-02-13 12:26:00,
2013-02-13 04:31:00,32.5,21.7,30.29,SSE,155,0.0,0.0,64,0.00,,---,0.00,VWS V14.01,2013-02-13 12:31:00,
2013-02-13 04:36:00,32.9,21.7,30.29,SSE,154,0.0,0.0,63,0.00,,---,0.00,VWS V14.01,2013-02-13 12:36:00,
2013-02-13 04:41:00,32.8,21.6,30.29,SSE,155,0.0,0.0,63,0.00,,---,0.00,VWS V14.01,2013-02-13 12:41:00,
2013-02-13 04:46:00,32.9,21.7,30.29,SSE,155,0.0,0.0,63,0.00,,---,0.00,VWS V14.01,2013-02-13 12:46:00,
2013-02-13 04:51:00,32.8,21.6,30.29,SSE,167,0.0,0.0,63,0.00,,---,0.00,VWS V14.01,2013-02-13 12:51:00,
2013-02-13 04:56:00,32.8,21.6,30.29,SSE,167,0.0,0.0,63,0.00,,---,0.00,VWS V14.01,2013-02-13 12:56:00,
2013-02-13 05:01:00,33.1,21.5,30.28,South,174,1.0,2.0,62,0.00,,---,0.00,VWS V14.01,2013-02-13 13:01:00,
2013-02-13 05:06:00,33.3,21.7,30.29,SE,146,1.0,3.0,62,0.00,,---,0.00,VWS V14.01,2013-02-13 13:06:00,
2013-02-13 05:11:00,33.8,21.8,30.28,SE,139,1.0,3.0,61,0.00,,---,0.00,VWS V14.01,2013-02-13 13:11:00,
2013-02-13 05:16:00,33.8,21.8,30.29,ESE,122,0.0,3.0,61,0.00,,---,0.00,VWS V14.01,2013-02-13 13:16:00,
2013-02-13 05:21:00,33.3,21.7,30.29,ESE,122,0.0,3.0,62,0.00,,---,0.00,VWS V14.01,2013-02-13 13:21:00,
2013-02-13 05:26:00,33.4,21.8,30.29,ESE,123,0.0,3.0,62,0.00,,---,0.00,VWS V14.01,2013-02-13 13:26:00,
2013-02-13 05:31:00,33.3,21.7,30.29,ESE,113,0.0,3.0,62,0.00,,---,0.00,VWS V14.01,2013-02-13 13:31:00,
2013-02-13 05:36:00,33.8,21.8,30.29,East,96,0.0,3.0,61,0.00,,---,0.00,VWS V14.01,2013-02-13 13:36:00,
2013-02-13 05:41:00,34.2,21.8,30.30,East,96,0.0,3.0,60,0.00,,---,0.00,VWS V14.01,2013-02-13 13:41:00,
2013-02-13 05:46:00,33.7,21.3,30.30,East,96,0.0,3.0,60,0.00,,---,0.00,VWS V14.01,2013-02-13 13:46:00,
2013-02-13 05:51:00,33.1,21.5,30.30,SW,228,0.0,3.0,62,0.00,,---,0.00,VWS V14.01,2013-02-13 13:51:00,
2013-02-13 05:56:00,32.2,21.4,30.30,SW,231,0.0,3.0,64,0.00,,---,0.00,VWS V14.01,2013-02-13 13:56:00,
2013-02-13 06:01:00,31.8,22.1,30.30,SW,217,2.0,2.0,67,0.00,,---,0.00,VWS V14.01,2013-02-13 14:01:00,
2013-02-13 06:06:00,31.8,22.1,30.30,South,170,1.0,2.0,67,0.00,,---,0.00,VWS V14.01,2013-02-13 14:06:00,
2013-02-13 06:11:00,32.8,22.7,30.31,SSE,158,2.0,2.0,66,0.00,,---,0.00,VWS V14.01,2013-02-13 14:11:00,
2013-02-13 06:16:00,33.7,22.8,30.31,SSE,148,1.0,3.0,64,0.00,,---,0.00,VWS V14.01,2013-02-13 14:16:00,
2013-02-13 06:21:00,34.0,22.7,30.31,SE,139,0.0,3.0,63,0.00,,---,0.00,VWS V14.01,2013-02-13 14:21:00,
2013-02-13 06:26:00,33.5,22.3,30.31,SE,138,1.0,3.0,63,0.00,,---,0.00,VWS V14.01,2013-02-13 14:26:00,
2013-02-13 06:31:00,33.4,22.5,30.31,SE,131,1.0,3.0,64,0.00,,---,0.00,VWS V14.01,2013-02-13 14:31:00,
2013-02-13 06:36:00,33.3,22.5,30.31,SE,124,0.0,3.0,64,0.00,,---,0.00,VWS V14.01,2013-02-13 14:36:00,
2013-02-13 06:41:00,33.2,22.4,30.31,SE,124,0.0,3.0,64,0.00,,---,0.00,VWS V14.01,2013-02-13 14:41:00,
2013-02-13 06:46:00,33.6,22.7,30.31,ESE,117,0.0,3.0,64,0.00,,---,0.00,VWS V14.01,2013-02-13 14:46:00,
2013-02-13 06:51:00,33.8,22.9,30.31,ESE,113,0.0,3.0,64,0.00,,---,0.00,VWS V14.01,2013-02-13 14:51:00,
2013-02-13 06:56:00,34.2,22.5,30.32,East,84,0.0,3.0,62,0.00,,---,0.00,VWS V14.01,2013-02-13 14:56:00,
2013-02-13 07:01:00,34.0,22.4,30.32,East,84,0.0,0.0,62,0.00,,---,0.00,VWS V14.01,2013-02-13 15:01:00,
2013-02-13 07:06:00,34.3,23.0,30.32,East,84,0.0,0.0,63,0.00,,---,0.00,VWS V14.01,2013-02-13 15:06:00,
2013-02-13 07:11:00,35.0,23.3,30.32,East,83,0.0,0.0,62,0.00,,---,0.00,VWS V14.01,2013-02-13 15:11:00,
2013-02-13 07:16:00,35.6,23.5,30.33,East,84,0.0,0.0,61,0.00,,---,0.00,VWS V14.01,2013-02-13 15:16:00,
2013-02-13 07:21:00,35.1,22.6,30.33,East,84,0.0,0.0,60,0.00,,---,0.00,VWS V14.01,2013-02-13 15:21:00,
2013-02-13 07:26:00,34.5,22.5,30.33,East,84,0.0,0.0,61,0.00,,---,0.00,VWS V14.01,2013-02-13 15:26:00,
2013-02-13 07:31:00,34.0,22.4,30.33,East,83,0.0,0.0,62,0.00,,---,0.00,VWS V14.01,2013-02-13 15:31:00,
2013-02-13 07:36:00,33.4,22.5,30.33,NNE,26,0.0,0.0,64,0.00,,---,0.00,VWS V14.01,2013-02-13 15:36:00,
2013-02-13 07:41:00,33.3,22.8,30.33,NNE,26,0.0,0.0,65,0.00,,---,0.00,VWS V14.01,2013-02-13 15:41:00,
2013-02-13 07:46:00,33.7,23.2,30.33,NNE,26,0.0,0.0,65,0.00,,---,0.00,VWS V14.01,2013-02-13 15:46:00,
2013-02-13 07:51:00,35.3,23.6,30.33,NNE,27,0.0,0.0,62,0.00,,---,0.00,VWS V14.01,2013-02-13 15:51:00,
2013-02-13 07:56:00,36.1,23.6,30.33,NNE,27,0.0,0.0,60,0.00,,---,0.00,VWS V14.01,2013-02-13 15:56:00,
2013-02-13 08:01:00,35.7,22.8,30.33,NE,39,0.0,0.0,59,0.00,,---,0.00,VWS V14.01,2013-02-13 16:01:00,
2013-02-13 08:06:00,35.7,23.2,30.34,NE,41,0.0,1.0,60,0.00,,---,0.00,VWS V14.01,2013-02-13 16:06:00,
2013-02-13 08:11:00,36.1,23.2,30.34,NNE,23,0.0,1.0,59,0.00,,---,0.00,VWS V14.01,2013-02-13 16:11:00,
2013-02-13 08:16:00,36.3,23.0,30.34,North,1,0.0,1.0,58,0.00,,---,0.00,VWS V14.01,2013-02-13 16:16:00,
2013-02-13 08:21:00,36.6,23.2,30.34,NNW,347,0.0,1.0,58,0.00,,---,0.00,VWS V14.01,2013-02-13 16:21:00,
2013-02-13 08:26:00,37.2,23.4,30.34,NNW,345,0.0,1.0,57,0.00,,---,0.00,VWS V14.01,2013-02-13 16:26:00,
2013-02-13 08:31:00,37.4,23.6,30.34,WNW,300,0.0,1.0,57,0.00,,---,0.00,VWS V14.01,2013-02-13 16:31:00,
2013-02-13 08:36:00,38.0,24.1,30.34,West,272,0.0,1.0,57,0.00,,---,0.00,VWS V14.01,2013-02-13 16:36:00,
2013-02-13 08:41:00,38.6,23.8,30.34,West,274,0.0,1.0,55,0.00,,---,0.00,VWS V14.01,2013-02-13 16:41:00,
2013-02-13 08:46:00,38.8,24.0,30.34,NNE,15,0.0,3.0,55,0.00,,---,0.00,VWS V14.01,2013-02-13 16:46:00,
2013-02-13 08:51:00,38.9,24.1,30.34,NNE,13,0.0,3.0,55,0.00,,---,0.00,VWS V14.01,2013-02-13 16:51:00,
2013-02-13 08:56:00,38.9,24.1,30.34,North,355,0.0,3.0,55,0.00,,---,0.00,VWS V14.01,2013-02-13 16:56:00,
2013-02-13 09:01:00,39.2,24.4,30.34,NNE,13,1.0,1.0,55,0.00,,---,0.00,VWS V14.01,2013-02-13 17:01:00,
2013-02-13 09:06:00,39.4,24.6,30.34,WNW,286,0.0,3.0,55,0.00,,---,0.00,VWS V14.01,2013-02-13 17:06:00,
2013-02-13 09:11:00,39.9,24.6,30.34,WNW,301,0.0,3.0,54,0.00,,---,0.00,VWS V14.01,2013-02-13 17:11:00,
2013-02-13 09:17:00,40.2,24.9,30.34,NW,317,0.0,3.0,54,0.00,,---,0.00,VWS V14.01,2013-02-13 17:17:00,
2013-02-13 09:22:00,40.8,25.0,30.34,WSW,247,0.0,3.0,53,0.00,,---,0.00,VWS V14.01,2013-02-13 17:22:00,
2013-02-13 09:27:00,41.3,25.0,30.34,West,281,0.0,3.0,52,0.00,,---,0.00,VWS V14.01,2013-02-13 17:27:00,
2013-02-13 09:32:00,42.2,25.4,30.34,WSW,246,0.0,3.0,51,0.00,,---,0.00,VWS V14.01,2013-02-13 17:32:00,
2013-02-13 09:37:00,42.7,25.4,30.34,West,281,0.0,3.0,50,0.00,,---,0.00,VWS V14.01,2013-02-13 17:37:00,
2013-02-13 09:42:00,43.2,25.8,30.34,West,278,0.0,3.0,50,0.00,,---,0.00,VWS V14.01,2013-02-13 17:42:00,
2013-02-13 09:47:00,43.9,26.0,30.34,West,264,0.0,3.0,49,0.00,,---,0.00,VWS V14.01,2013-02-13 17:47:00,
2013-02-13 09:52:00,44.7,26.2,30.34,WNW,296,0.0,3.0,48,0.00,,---,0.00,VWS V14.01,2013-02-13 17:52:00,
2013-02-13 09:57:00,45.3,25.8,30.33,WNW,303,2.0,3.0,46,0.00,,---,0.00,VWS V14.01,2013-02-13 17:57:00,
2013-02-13 10:02:00,45.7,25.6,30.33,WNW,290,2.0,4.0,45,0.00,,---,0.00,VWS V14.01,2013-02-13 18:02:00,
2013-02-13 10:07:00,46.2,25.5,30.33,WNW,285,2.0,5.0,44,0.00,,---,0.00,VWS V14.01,2013-02-13 18:07:00,
2013-02-13 10:12:00,46.6,25.3,30.33,WNW,287,3.0,5.0,43,0.00,,---,0.00,VWS V14.01,2013-02-13 18:12:00,
2013-02-13 10:17:00,47.1,25.2,30.33,North,359,3.0,5.0,42,0.00,,---,0.00,VWS V14.01,2013-02-13 18:17:00,
2013-02-13 10:22:00,47.7,25.2,30.33,West,273,1.0,5.0,41,0.00,,---,0.00,VWS V14.01,2013-02-13 18:22:00,
2013-02-13 10:27:00,48.5,25.3,30.33,WNW,297,2.0,5.0,40,0.00,,---,0.00,VWS V14.01,2013-02-13 18:27:00,
2013-02-13 10:32:00,48.9,24.4,30.33,NE,41,1.0,5.0,38,0.00,,---,0.00,VWS V14.01,2013-02-13 18:32:00,
2013-02-13 10:37:00,49.5,24.3,30.33,NE,46,1.0,5.0,37,0.00,,---,0.00,VWS V14.01,2013-02-13 18:37:00,
2013-02-13 10:42:00,50.1,24.2,30.32,WNW,283,0.0,5.0,36,0.00,,---,0.00,VWS V14.01,2013-02-13 18:42:00,
2013-02-13 10:47:00,50.6,24.0,30.32,NNE,27,3.0,5.0,35,0.00,,---,0.00,VWS V14.01,2013-02-13 18:47:00,
2013-02-13 10:52:00,51.0,23.6,30.32,NNE,18,1.0,5.0,34,0.00,,---,0.00,VWS V14.01,2013-02-13 18:52:00,
2013-02-13 10:57:00,51.6,24.2,30.32,NNW,343,4.0,5.0,34,0.00,,---,0.00,VWS V14.01,2013-02-13 18:57:00,
2013-02-13 11:02:00,51.7,22.8,30.32,NNE,15,2.0,4.0,32,0.00,,---,0.00,VWS V14.01,2013-02-13 19:02:00,
2013-02-13 11:07:00,51.6,22.7,30.32,ENE,63,2.0,9.0,32,0.00,,---,0.00,VWS V14.01,2013-02-13 19:07:00,
2013-02-13 11:12:00,51.9,23.0,30.31,North,358,2.0,9.0,32,0.00,,---,0.00,VWS V14.01,2013-02-13 19:12:00,
2013-02-13 11:17:00,52.5,22.8,30.31,NNE,20,1.0,9.0,31,0.00,,---,0.00,VWS V14.01,2013-02-13 19:17:00,
2013-02-13 11:22:00,52.9,23.9,30.30,NNW,339,0.0,9.0,32,0.00,,---,0.00,VWS V14.01,2013-02-13 19:22:00,
2013-02-13 11:27:00,53.4,22.8,30.30,North,5,0.0,9.0,30,0.00,,---,0.00,VWS V14.01,2013-02-13 19:27:00,
2013-02-13 11:32:00,53.8,23.1,30.30,East,92,1.0,9.0,30,0.00,,---,0.00,VWS V14.01,2013-02-13 19:32:00,
2013-02-13 11:37:00,54.4,23.6,30.30,WSW,252,2.0,9.0,30,0.00,,---,0.00,VWS V14.01,2013-02-13 19:37:00,
2013-02-13 11:42:00,54.7,23.1,30.29,NNE,23,3.0,9.0,29,0.00,,---,0.00,VWS V14.01,2013-02-13 19:42:00,
2013-02-13 11:47:00,54.9,22.4,30.29,NE,35,6.0,9.0,28,0.00,,---,0.00,VWS V14.01,2013-02-13 19:47:00,
2013-02-13 11:52:00,55.4,22.0,30.29,WNW,301,1.0,9.0,27,0.00,,---,0.00,VWS V14.01,2013-02-13 19:52:00,
2013-02-13 11:57:00,55.5,21.2,30.28,NNW,328,2.0,9.0,26,0.00,,---,0.00,VWS V14.01,2013-02-13 19:57:00,
2013-02-13 12:02:00,55.8,22.3,30.28,ENE,75,3.0,4.0,27,0.00,,---,0.00,VWS V14.01,2013-02-13 20:02:00,
2013-02-13 12:07:00,56.3,21.9,30.28,SSE,148,0.0,4.0,26,0.00,,---,0.00,VWS V14.01,2013-02-13 20:07:00,
2013-02-13 12:12:00,56.8,21.4,30.28,ENE,60,4.0,6.0,25,0.00,,---,0.00,VWS V14.01,2013-02-13 20:12:00,
2013-02-13 12:17:00,56.6,21.2,30.27,NE,40,2.0,6.0,25,0.00,,---,0.00,VWS V14.01,2013-02-13 20:17:00,
2013-02-13 12:22:00,56.9,21.5,30.27,South,190,1.0,7.0,25,0.00,,---,0.00,VWS V14.01,2013-02-13 20:22:00,
2013-02-13 12:27:00,57.0,20.6,30.26,NE,36,3.0,8.0,24,0.00,,---,0.00,VWS V14.01,2013-02-13 20:27:00,
2013-02-13 12:32:00,57.2,21.7,30.26,NE,36,0.0,8.0,25,0.00,,---,0.00,VWS V14.01,2013-02-13 20:32:00,
2013-02-13 12:37:00,57.8,21.3,30.26,ENE,61,0.0,8.0,24,0.00,,---,0.00,VWS V14.01,2013-02-13 20:37:00,
2013-02-13 12:42:00,58.2,21.6,30.25,NE,54,0.0,8.0,24,0.00,,---,0.00,VWS V14.01,2013-02-13 20:42:00,
2013-02-13 12:47:00,59.0,21.3,30.25,ENE,70,4.0,8.0,23,0.00,,---,0.00,VWS V14.01,2013-02-13 20:47:00,
2013-02-13 12:52:00,58.4,19.7,30.25,NE,54,5.0,9.0,22,0.00,,---,0.00,VWS V14.01,2013-02-13 20:52:00,
2013-02-13 12:57:00,58.9,21.2,30.24,ENE,71,0.0,9.0,23,0.00,,---,0.00,VWS V14.01,2013-02-13 20:57:00,
2013-02-13 13:02:00,59.0,20.2,30.24,ESE,113,0.0,5.0,22,0.00,,---,0.00,VWS V14.01,2013-02-13 21:02:00,
2013-02-13 13:07:00,59.5,20.6,30.24,NW,316,0.0,7.0,22,0.00,,---,0.00,VWS V14.01,2013-02-13 21:07:00,
2013-02-13 13:12:00,59.9,19.9,30.24,ENE,62,3.0,7.0,21,0.00,,---,0.00,VWS V14.01,2013-02-13 21:12:00,
2013-02-13 13:17:00,59.9,18.8,30.24,ENE,71,0.0,8.0,20,0.00,,---,0.00,VWS V14.01,2013-02-13 21:17:00,
2013-02-13 13:22:00,59.7,19.7,30.23,ENE,57,4.0,8.0,21,0.00,,---,0.00,VWS V14.01,2013-02-13 21:22:00,
2013-02-13 13:27:00,60.0,18.8,30.23,NNE,27,4.0,8.0,20,0.00,,---,0.00,VWS V14.01,2013-02-13 21:27:00,
2013-02-13 13:32:00,60.2,19.0,30.23,ESE,103,0.0,8.0,20,0.00,,---,0.00,VWS V14.01,2013-02-13 21:32:00,
2013-02-13 13:37:00,60.3,17.9,30.23,East,86,5.0,8.0,19,0.00,,---,0.00,VWS V14.01,2013-02-13 21:37:00,
2013-02-13 13:42:00,60.7,18.2,30.22,ESE,108,4.0,8.0,19,0.00,,---,0.00,VWS V14.01,2013-02-13 21:42:00,
2013-02-13 13:47:00,61.2,18.6,30.22,NNE,18,1.0,8.0,19,0.00,,---,0.00,VWS V14.01,2013-02-13 21:47:00,
2013-02-13 13:52:00,60.7,18.2,30.21,NE,49,6.0,9.0,19,0.00,,---,0.00,VWS V14.01,2013-02-13 21:52:00,
2013-02-13 13:57:00,60.6,18.1,30.21,SSE,152,4.0,9.0,19,0.00,,---,0.00,VWS V14.01,2013-02-13 21:57:00,
2013-02-13 14:02:00,61.6,19.0,30.21,SW,230,1.0,2.0,19,0.00,,---,0.00,VWS V14.01,2013-02-13 22:02:00,
2013-02-13 14:07:00,61.8,19.1,30.21,ENE,68,2.0,4.0,19,0.00,,---,0.00,VWS V14.01,2013-02-13 22:07:00,
2013-02-13 14:12:00,61.3,17.5,30.20,ENE,68,4.0,10.0,18,0.00,,---,0.00,VWS V14.01,2013-02-13 22:12:00,
2013-02-13 14:17:00,61.1,17.3,30.20,NE,51,3.0,10.0,18,0.00,,---,0.00,VWS V14.01,2013-02-13 22:17:00,
2013-02-13 14:22:00,61.3,17.5,30.20,ENE,61,2.0,10.0,18,0.00,,---,0.00,VWS V14.01,2013-02-13 22:22:00,
2013-02-13 14:28:00,61.4,17.5,30.20,NE,54,2.0,10.0,18,0.00,,---,0.00,VWS V14.01,2013-02-13 22:28:00,
2013-02-13 14:33:00,61.5,17.6,30.20,NNE,33,1.0,10.0,18,0.00,,---,0.00,VWS V14.01,2013-02-13 22:33:00,
2013-02-13 14:38:00,61.7,17.8,30.20,ESE,110,4.0,10.0,18,0.00,,---,0.00,VWS V14.01,2013-02-13 22:38:00,
2013-02-13 14:43:00,62.1,18.1,30.19,WNW,294,0.0,10.0,18,0.00,,---,0.00,VWS V14.01,2013-02-13 22:43:00,
2013-02-13 14:48:00,62.6,17.2,30.19,NE,54,4.0,10.0,17,0.00,,---,0.00,VWS V14.01,2013-02-13 22:48:00,
2013-02-13 14:53:00,62.3,17.0,30.19,NE,51,3.0,10.0,17,0.00,,---,0.00,VWS V14.01,2013-02-13 22:53:00,
2013-02-13 14:58:00,62.4,17.0,30.19,East,80,4.0,10.0,17,0.00,,---,0.00,VWS V14.01,2013-02-13 22:58:00,
2013-02-13 15:03:00,62.3,18.3,30.18,NE,44,4.0,7.0,18,0.00,,---,0.00,VWS V14.01,2013-02-13 23:03:00,
2013-02-13 15:08:00,62.6,17.2,30.19,ENE,67,4.0,9.0,17,0.00,,---,0.00,VWS V14.01,2013-02-13 23:08:00,
2013-02-13 15:13:00,62.4,17.0,30.18,ENE,60,5.0,10.0,17,0.00,,---,0.00,VWS V14.01,2013-02-13 23:13:00,
2013-02-13 15:18:00,62.4,17.0,30.18,North,11,2.0,11.0,17,0.00,,---,0.00,VWS V14.01,2013-02-13 23:18:00,
2013-02-13 15:23:00,62.6,17.2,30.18,NE,40,5.0,11.0,17,0.00,,---,0.00,VWS V14.01,2013-02-13 23:23:00,
2013-02-13 15:28:00,62.7,17.3,30.18,East,79,0.0,11.0,17,0.00,,---,0.00,VWS V14.01,2013-02-13 23:28:00,
2013-02-13 15:33:00,63.0,17.5,30.18,ENE,60,7.0,11.0,17,0.00,,---,0.00,VWS V14.01,2013-02-13 23:33:00,
2013-02-13 15:38:00,62.8,17.4,30.18,NE,42,1.0,11.0,17,0.00,,---,0.00,VWS V14.01,2013-02-13 23:38:00,
2013-02-13 15:43:00,63.1,17.6,30.18,SE,139,0.0,11.0,17,0.00,,---,0.00,VWS V14.01,2013-02-13 23:43:00,
2013-02-13 15:48:00,63.2,16.3,30.17,NE,47,4.0,11.0,16,0.00,,---,0.00,VWS V14.01,2013-02-13 23:48:00,
2013-02-13 15:53:00,63.4,16.5,30.17,East,83,4.0,11.0,16,0.00,,---,0.00,VWS V14.01,2013-02-13 23:53:00,
2013-02-13 15:58:00,63.2,17.7,30.17,ESE,115,1.0,11.0,17,0.00,,---,0.00,VWS V14.01,2013-02-13 23:58:00,
2013-02-13 16:03:00,63.2,17.7,30.17,ENE,70,2.0,5.0,17,0.00,,---,0.00,VWS V14.01,2013-02-14 00:03:00,
2013-02-13 16:09:00,63.3,17.8,30.17,NNW,340,1.0,5.0,17,0.00,,---,0.00,VWS V14.01,2013-02-14 00:09:00,
2013-02-13 16:14:00,63.5,16.5,30.17,NE,47,3.0,5.0,16,0.00,,---,0.00,VWS V14.01,2013-02-14 00:14:00,
2013-02-13 16:19:00,63.3,16.4,30.17,NNE,13,4.0,6.0,16,0.00,,---,0.00,VWS V14.01,2013-02-14 00:19:00,
2013-02-13 16:24:00,63.0,17.5,30.17,NNE,30,1.0,8.0,17,0.00,,---,0.00,VWS V14.01,2013-02-14 00:24:00,
2013-02-13 16:29:00,62.9,17.5,30.17,NE,47,2.0,8.0,17,0.00,,---,0.00,VWS V14.01,2013-02-14 00:29:00,
2013-02-13 16:34:00,62.8,16.0,30.17,NE,51,1.0,8.0,16,0.00,,---,0.00,VWS V14.01,2013-02-14 00:34:00,
2013-02-13 16:39:00,62.8,17.4,30.16,NE,53,2.0,8.0,17,0.00,,---,0.00,VWS V14.01,2013-02-14 00:39:00,
2013-02-13 16:44:00,62.7,17.3,30.16,North,5,3.0,8.0,17,0.00,,---,0.00,VWS V14.01,2013-02-14 00:44:00,
2013-02-13 16:49:00,62.6,17.2,30.16,NNE,30,4.0,8.0,17,0.00,,---,0.00,VWS V14.01,2013-02-14 00:49:00,
2013-02-13 16:54:00,62.5,17.1,30.16,NNE,29,4.0,8.0,17,0.00,,---,0.00,VWS V14.01,2013-02-14 00:54:00,
2013-02-13 16:59:00,62.5,17.1,30.16,North,8,1.0,8.0,17,0.00,,---,0.00,VWS V14.01,2013-02-14 00:59:00,
2013-02-13 17:04:00,62.5,15.7,30.16,North,8,4.0,5.0,16,0.00,,---,0.00,VWS V14.01,2013-02-14 01:04:00,
2013-02-13 17:09:00,62.3,15.6,30.16,North,355,4.0,5.0,16,0.00,,---,0.00,VWS V14.01,2013-02-14 01:09:00,
2013-02-13 17:14:00,61.9,16.6,30.16,NNW,342,2.0,5.0,17,0.00,,---,0.00,VWS V14.01,2013-02-14 01:14:00,
2013-02-13 17:19:00,61.4,16.2,30.17,NNW,341,1.0,5.0,17,0.00,,---,0.00,VWS V14.01,2013-02-14 01:19:00,
2013-02-13 17:24:00,60.9,17.1,30.17,NNW,332,2.0,5.0,18,0.00,,---,0.00,VWS V14.01,2013-02-14 01:24:00,
2013-02-13 17:29:00,60.5,16.8,30.17,North,351,2.0,5.0,18,0.00,,---,0.00,VWS V14.01,2013-02-14 01:29:00,
2013-02-13 17:34:00,60.0,17.6,30.17,NNW,328,0.0,5.0,19,0.00,,---,0.00,VWS V14.01,2013-02-14 01:34:00,
2013-02-13 17:39:00,59.5,17.2,30.17,NW,312,1.0,5.0,19,0.00,,---,0.00,VWS V14.01,2013-02-14 01:39:00,
2013-02-13 17:44:00,59.0,16.8,30.17,NW,308,1.0,5.0,19,0.00,,---,0.00,VWS V14.01,2013-02-14 01:44:00,
2013-02-13 17:49:00,58.7,16.6,30.17,WNW,296,1.0,5.0,19,0.00,,---,0.00,VWS V14.01,2013-02-14 01:49:00,
2013-02-13 17:54:00,58.3,17.4,30.17,WSW,243,0.0,5.0,20,0.00,,---,0.00,VWS V14.01,2013-02-14 01:54:00,
2013-02-13 17:59:00,57.8,18.1,30.17,SW,231,2.0,5.0,21,0.00,,---,0.00,VWS V14.01,2013-02-14 01:59:00,
2013-02-13 18:04:00,57.2,18.7,30.17,SW,226,2.0,3.0,22,0.00,,---,0.00,VWS V14.01,2013-02-14 02:04:00,
2013-02-13 18:09:00,56.6,18.2,30.17,SW,221,2.0,3.0,22,0.00,,---,0.00,VWS V14.01,2013-02-14 02:09:00,
2013-02-13 18:14:00,56.0,19.7,30.18,SSW,197,1.0,3.0,24,0.00,,---,0.00,VWS V14.01,2013-02-14 02:14:00,
2013-02-13 18:19:00,55.4,19.2,30.18,SSW,212,1.0,3.0,24,0.00,,---,0.00,VWS V14.01,2013-02-14 02:19:00,
2013-02-13 18:24:00,54.9,18.8,30.17,SSW,207,0.0,3.0,24,0.00,,---,0.00,VWS V14.01,2013-02-14 02:24:00,
2013-02-13 18:29:00,54.5,19.4,30.17,SSW,207,0.0,3.0,25,0.00,,---,0.00,VWS V14.01,2013-02-14 02:29:00,
2013-02-13 18:34:00,54.0,19.0,30.17,SW,214,0.0,3.0,25,0.00,,---,0.00,VWS V14.01,2013-02-14 02:34:00,
2013-02-13 18:39:00,53.7,18.7,30.17,South,187,0.0,3.0,25,0.00,,---,0.00,VWS V14.01,2013-02-14 02:39:00,
2013-02-13 18:44:00,53.3,18.4,30.18,SSW,203,0.0,3.0,25,0.00,,---,0.00,VWS V14.01,2013-02-14 02:44:00,
2013-02-13 18:49:00,53.1,18.2,30.17,South,188,0.0,3.0,25,0.00,,---,0.00,VWS V14.01,2013-02-14 02:49:00,
2013-02-13 18:55:00,53.0,19.0,30.17,South,169,1.0,3.0,26,0.00,,---,0.00,VWS V14.01,2013-02-14 02:55:00,
2013-02-13 19:00:00,52.7,18.8,30.17,South,186,1.0,2.0,26,0.00,,---,0.00,VWS V14.01,2013-02-14 03:00:00,
2013-02-13 19:05:00,52.5,18.6,30.17,SSE,163,0.0,2.0,26,0.00,,---,0.00,VWS V14.01,2013-02-14 03:05:00,
2013-02-13 19:10:00,52.2,19.2,30.17,SSE,163,0.0,2.0,27,0.00,,---,0.00,VWS V14.01,2013-02-14 03:10:00,
2013-02-13 19:15:00,52.0,19.1,30.17,SSE,163,1.0,2.0,27,0.00,,---,0.00,VWS V14.01,2013-02-14 03:15:00,
2013-02-13 19:20:00,51.8,18.9,30.17,South,179,2.0,2.0,27,0.00,,---,0.00,VWS V14.01,2013-02-14 03:20:00,
2013-02-13 19:25:00,51.6,18.7,30.18,South,169,0.0,2.0,27,0.00,,---,0.00,VWS V14.01,2013-02-14 03:25:00,
2013-02-13 19:30:00,51.4,19.4,30.18,SSW,194,2.0,2.0,28,0.00,,---,0.00,VWS V14.01,2013-02-14 03:30:00,
2013-02-13 19:35:00,51.2,19.2,30.18,South,181,0.0,2.0,28,0.00,,---,0.00,VWS V14.01,2013-02-14 03:35:00,
2013-02-13 19:40:00,51.0,19.1,30.18,South,176,1.0,2.0,28,0.00,,---,0.00,VWS V14.01,2013-02-14 03:40:00,
2013-02-13 19:45:00,50.9,19.0,30.18,SSE,162,0.0,2.0,28,0.00,,---,0.00,VWS V14.01,2013-02-14 03:45:00,
2013-02-13 19:50:00,49.9,20.5,30.18,WNW,300,3.0,7.0,31,0.00,,---,0.00,VWS V14.01,2013-02-14 03:50:00,
2013-02-13 19:55:00,48.2,20.5,30.19,WNW,284,0.0,7.0,33,0.00,,---,0.00,VWS V14.01,2013-02-14 03:55:00,
2013-02-13 20:00:00,47.4,20.5,30.19,WNW,284,0.0,0.0,34,0.00,,---,0.00,VWS V14.01,2013-02-14 04:00:00,
2013-02-13 20:05:00,47.1,20.9,30.19,SSW,207,1.0,2.0,35,0.00,,---,0.00,VWS V14.01,2013-02-14 04:05:00,
2013-02-13 20:10:00,46.7,20.5,30.19,South,184,2.0,3.0,35,0.00,,---,0.00,VWS V14.01,2013-02-14 04:10:00,
2013-02-13 20:15:00,46.3,20.8,30.19,South,187,1.0,3.0,36,0.00,,---,0.00,VWS V14.01,2013-02-14 04:15:00,
2013-02-13 20:20:00,46.1,20.6,30.19,SSE,158,1.0,3.0,36,0.00,,---,0.00,VWS V14.01,2013-02-14 04:20:00,
2013-02-13 20:25:00,46.0,20.6,30.19,ESE,120,0.0,3.0,36,0.00,,---,0.00,VWS V14.01,2013-02-14 04:25:00,
2013-02-13 20:30:00,45.9,21.1,30.19,ESE,120,0.0,3.0,37,0.00,,---,0.00,VWS V14.01,2013-02-14 04:30:00,
2013-02-13 20:35:00,45.7,20.9,30.19,ESE,120,1.0,3.0,37,0.00,,---,0.00,VWS V14.01,2013-02-14 04:35:00,
2013-02-13 20:40:00,45.7,20.9,30.20,East,101,1.0,3.0,37,0.00,,---,0.00,VWS V14.01,2013-02-14 04:40:00,
2013-02-13 20:45:00,45.7,20.9,30.20,East,94,0.0,3.0,37,0.00,,---,0.00,VWS V14.01,2013-02-14 04:45:00,
2013-02-13 20:50:00,45.7,20.9,30.20,ESE,110,1.0,3.0,37,0.00,,---,0.00,VWS V14.01,2013-02-14 04:50:00,
2013-02-13 20:55:00,45.7,20.9,30.20,SE,130,1.0,3.0,37,0.00,,---,0.00,VWS V14.01,2013-02-14 04:55:00,
2013-02-13 21:00:00,45.8,20.4,30.20,SE,125,0.0,0.0,36,0.00,,---,0.00,VWS V14.01,2013-02-14 05:00:00,
2013-02-13 21:02:00,45.8,20.4,30.20,SE,131,1.0,1.0,36,0.00,,---,0.00,VWS V14.01,2013-02-14 05:02:00,
2013-02-13 21:07:00,46.0,20.6,30.20,SE,131,0.0,1.0,36,0.00,,---,0.00,VWS V14.01,2013-02-14 05:07:00,
2013-02-13 21:12:00,45.8,21.0,30.20,SSE,167,2.0,2.0,37,0.00,,---,0.00,VWS V14.01,2013-02-14 05:12:00,
2013-02-13 21:14:00,45.6,20.9,30.20,South,184,1.0,2.0,37,0.00,,---,0.00,VWS V14.01,2013-02-14 05:14:00,
2013-02-13 21:19:00,45.2,20.5,30.20,South,173,2.0,3.0,37,0.00,,---,0.00,VWS V14.01,2013-02-14 05:19:00,
2013-02-13 21:24:00,45.0,20.9,30.20,South,170,0.0,3.0,38,0.00,,---,0.00,VWS V14.01,2013-02-14 05:24:00,
2013-02-13 21:29:00,44.8,20.8,30.20,South,170,0.0,3.0,38,0.00,,---,0.00,VWS V14.01,2013-02-14 05:29:00,
2013-02-13 21:34:00,44.6,20.6,30.20,SSE,160,1.0,3.0,38,0.00,,---,0.00,VWS V14.01,2013-02-14 05:34:00,
2013-02-13 21:39:00,44.5,19.9,30.20,SSE,165,1.0,3.0,37,0.00,,---,0.00,VWS V14.01,2013-02-14 05:39:00,
2013-02-13 21:44:00,44.6,20.0,30.21,South,190,1.0,3.0,37,0.00,,---,0.00,VWS V14.01,2013-02-14 05:44:00,
2013-02-13 21:49:00,44.5,19.9,30.20,South,188,1.0,3.0,37,0.00,,---,0.00,VWS V14.01,2013-02-14 05:49:00,
2013-02-13 21:54:00,44.3,19.7,30.20,South,174,2.0,3.0,37,0.00,,---,0.00,VWS V14.01,2013-02-14 05:54:00,
2013-02-13 21:59:00,44.1,20.1,30.20,SSE,167,2.0,3.0,38,0.00,,---,0.00,VWS V14.01,2013-02-14 05:59:00,
2013-02-13 22:04:00,44.0,20.0,30.20,South,173,3.0,3.0,38,0.00,,---,0.00,VWS V14.01,2013-02-14 06:04:00,
2013-02-13 22:09:00,43.9,20.6,30.20,South,170,1.0,3.0,39,0.00,,---,0.00,VWS V14.01,2013-02-14 06:09:00,
2013-02-13 22:14:00,43.6,20.3,30.20,SSW,193,0.0,3.0,39,0.00,,---,0.00,VWS V14.01,2013-02-14 06:14:00,
2013-02-13 22:19:00,43.5,20.2,30.21,South,180,0.0,3.0,39,0.00,,---,0.00,VWS V14.01,2013-02-14 06:19:00,
2013-02-13 22:24:00,43.5,20.8,30.21,SE,137,2.0,3.0,40,0.00,,---,0.00,VWS V14.01,2013-02-14 06:24:00,
2013-02-13 22:29:00,43.7,21.0,30.21,SE,129,1.0,3.0,40,0.00,,---,0.00,VWS V14.01,2013-02-14 06:29:00,
2013-02-13 22:34:00,43.7,21.0,30.21,SE,125,1.0,3.0,40,0.00,,---,0.00,VWS V14.01,2013-02-14 06:34:00,
2013-02-13 22:39:00,43.9,21.2,30.21,SE,130,1.0,3.0,40,0.00,,---,0.00,VWS V14.01,2013-02-14 06:39:00,
2013-02-13 22:44:00,43.8,21.1,30.21,SE,131,0.0,3.0,40,0.00,,---,0.00,VWS V14.01,2013-02-14 06:44:00,
2013-02-13 22:49:00,43.7,21.0,30.21,SSE,148,0.0,3.0,40,0.00,,---,0.00,VWS V14.01,2013-02-14 06:49:00,
2013-02-13 22:54:00,43.7,21.0,30.21,SSE,148,0.0,3.0,40,0.00,,---,0.00,VWS V14.01,2013-02-14 06:54:00,
2013-02-13 22:59:00,43.7,21.0,30.21,SSE,148,0.0,3.0,40,0.00,,---,0.00,VWS V14.01,2013-02-14 06:59:00,
2013-02-13 23:04:00,43.6,20.9,30.21,SSE,150,1.0,1.0,40,0.00,,---,0.00,VWS V14.01,2013-02-14 07:04:00,
2013-02-13 23:09:00,43.3,21.2,30.21,SSE,159,0.0,2.0,41,0.00,,---,0.00,VWS V14.01,2013-02-14 07:09:00,
2013-02-13 23:14:00,43.2,21.7,30.21,SE,145,0.0,2.0,42,0.00,,---,0.00,VWS V14.01,2013-02-14 07:14:00,
2013-02-13 23:19:00,43.2,21.7,30.22,SE,145,0.0,2.0,42,0.00,,---,0.00,VWS V14.01,2013-02-14 07:19:00,
2013-02-13 23:24:00,42.8,21.3,30.22,SE,145,0.0,2.0,42,0.00,,---,0.00,VWS V14.01,2013-02-14 07:24:00,
2013-02-13 23:29:00,42.4,21.5,30.22,SE,145,0.0,2.0,43,0.00,,---,0.00,VWS V14.01,2013-02-14 07:29:00,
2013-02-13 23:34:00,41.8,22.0,30.22,SE,145,0.0,2.0,45,0.00,,---,0.00,VWS V14.01,2013-02-14 07:34:00,
2013-02-13 23:39:00,41.1,21.9,30.22,SE,145,0.0,2.0,46,0.00,,---,0.00,VWS V14.01,2013-02-14 07:39:00,
2013-02-13 23:44:00,40.5,21.9,30.22,SE,146,0.0,2.0,47,0.00,,---,0.00,VWS V14.01,2013-02-14 07:44:00,
2013-02-13 23:49:00,40.3,22.2,30.22,SE,145,0.0,2.0,48,0.00,,---,0.00,VWS V14.01,2013-02-14 07:49:00,
2013-02-13 23:54:00,40.2,22.1,30.21,SSE,160,0.0,2.0,48,0.00,,---,0.00,VWS V14.01,2013-02-14 07:54:00,
2013-02-13 23:59:00,40.0,21.9,30.21,SSE,160,0.0,0.0,48,0.00,,---,0.00,VWS V14.01,2013-02-14 07:59:00,